Time;durP1;ratioP1;P1;durP2;ratioP2;P2;SDS_P1;SDS_P2;PMS_P1;PMS_P2;Temp;Humidity;BMP_temperature;BMP_pressure;BME280_temperature;BME280_humidity;BME280_pressure;Samples;Min_cycle;Max_cycle;Signal;HPM_P1;HPM_P2
2021/07/01 00:01:58;;;;;;;23.48;15.65;;;17.00;96.30;;;16.80;84.96;100308.00;5032254;28;20047;-83
2021/07/01 00:04:26;;;;;;;22.63;15.65;;;17.00;96.10;;;16.78;85.06;100310.13;5032314;28;20552;-83
2021/07/01 00:06:53;;;;;;;24.35;16.60;;;17.00;96.10;;;16.78;85.12;100309.31;5030739;28;20517;-83
2021/07/01 00:09:23;;;;;;;23.63;15.02;;;17.00;96.10;;;16.79;85.05;100308.22;5032132;28;20115;-84
2021/07/01 00:11:55;;;;;;;21.52;15.38;;;17.00;96.20;;;16.79;85.34;100305.47;5032158;28;20049;-83
2021/07/01 00:14:23;;;;;;;25.13;15.40;;;17.00;96.30;;;16.77;85.15;100313.97;5031974;28;20049;-83
2021/07/01 00:16:53;;;;;;;25.10;16.77;;;16.90;96.20;;;16.77;85.23;100311.22;5031682;28;20112;-82
2021/07/01 00:19:21;;;;;;;21.85;14.95;;;16.90;96.40;;;16.74;85.38;100310.84;5031907;28;20576;-83
2021/07/01 00:21:48;;;;;;;23.73;15.18;;;16.90;96.60;;;16.74;85.59;100308.09;5031921;28;20045;-83
2021/07/01 00:24:16;;;;;;;24.17;16.08;;;16.90;96.60;;;16.74;85.46;100303.41;5034907;28;20137;-83
2021/07/01 00:26:43;;;;;;;24.95;14.93;;;16.90;96.60;;;16.75;85.37;100302.38;5051369;28;20064;-83
2021/07/01 00:29:12;;;;;;;23.33;15.15;;;16.90;96.70;;;16.73;85.58;100315.47;5051686;28;20052;-83
2021/07/01 00:31:40;;;;;;;26.83;17.02;;;16.90;96.90;;;16.73;85.49;100309.97;5051668;28;20471;-83
2021/07/01 00:34:07;;;;;;;25.63;16.02;;;16.90;96.80;;;16.73;85.72;100315.47;5050228;28;20045;-83
2021/07/01 00:36:35;;;;;;;26.33;16.90;;;16.90;96.90;;;16.74;85.87;100316.34;5051226;28;20055;-83
2021/07/01 00:39:02;;;;;;;25.17;17.15;;;16.90;96.90;;;16.73;85.70;100318.22;5051796;28;20103;-83
2021/07/01 00:41:29;;;;;;;25.25;17.02;;;16.90;96.80;;;16.72;85.51;100322.06;5035262;28;20478;-83
2021/07/01 00:43:58;;;;;;;28.60;18.05;;;16.90;96.60;;;16.70;85.47;100315.94;5010463;28;20164;-83
2021/07/01 00:46:27;;;;;;;26.73;17.38;;;16.90;96.50;;;16.70;85.46;100315.94;5011387;28;20120;-83
2021/07/01 00:48:54;;;;;;;23.58;16.73;;;16.90;96.60;;;16.72;85.33;100318.47;5026634;28;20045;-83
2021/07/01 00:51:21;;;;;;;27.25;16.85;;;16.90;96.40;;;16.69;85.15;100319.75;5010143;28;20863;-83
2021/07/01 00:53:49;;;;;;;23.95;15.93;;;16.90;96.30;;;16.66;85.67;100320.22;5026416;28;20046;-83
2021/07/01 00:56:16;;;;;;;24.17;15.80;;;16.90;96.50;;;16.61;85.58;100317.31;5029563;28;20124;-83
2021/07/01 00:58:44;;;;;;;23.63;15.75;;;16.90;96.40;;;16.63;85.54;100315.19;5029653;28;20050;-83
2021/07/01 01:01:12;;;;;;;23.98;15.45;;;16.90;96.50;;;16.67;85.12;100332.06;5030529;28;20147;-84
2021/07/01 01:03:40;;;;;;;28.10;15.00;;;16.90;96.30;;;16.64;85.32;100324.25;5029581;28;20065;-83
2021/07/01 01:06:10;;;;;;;23.23;14.90;;;16.90;96.40;;;16.64;85.50;100322.38;5030891;28;20072;-83
2021/07/01 01:08:43;;;;;;;20.45;14.65;;;16.90;96.30;;;16.64;85.28;100322.38;5029652;28;20116;-83
2021/07/01 01:11:11;;;;;;;23.42;14.88;;;16.90;96.30;;;16.63;85.38;100320.69;5031060;28;20645;-83
2021/07/01 01:13:46;;;;;;;20.25;14.25;;;16.80;96.20;;;16.63;85.27;100320.69;5031257;28;20030;-83
2021/07/01 01:16:32;;;;;;;22.65;15.68;;;16.80;96.00;;;16.64;85.28;100316.00;5030647;28;20084;-83
2021/07/01 01:19:01;;;;;;;20.63;14.23;;;16.80;96.20;;;16.64;85.33;100319.63;5031085;28;20048;-83
2021/07/01 01:21:31;;;;;;;21.30;14.15;;;16.80;96.50;;;16.61;85.47;100314.56;5030869;28;20045;-83
2021/07/01 01:24:03;;;;;;;21.80;14.27;;;16.80;96.60;;;16.59;84.91;100313.97;5031331;28;20596;-83
2021/07/01 01:26:30;;;;;;;22.02;14.65;;;16.80;96.40;;;16.53;85.52;100315.72;5048781;28;20045;-83
2021/07/01 01:28:58;;;;;;;23.63;14.93;;;16.80;96.50;;;16.57;85.65;100311.44;5049306;28;20052;-83
2021/07/01 01:31:27;;;;;;;23.38;14.07;;;16.80;96.40;;;16.58;85.59;100307.66;5049230;28;20095;-82
2021/07/01 01:33:55;;;;;;;22.50;14.80;;;16.80;96.60;;;16.59;85.39;100306.56;5049074;28;20140;-83
2021/07/01 01:36:23;;;;;;;25.50;15.05;;;16.80;96.50;;;16.57;85.49;100307.88;5028504;28;20050;-83
2021/07/01 01:38:51;;;;;;;24.70;16.25;;;16.80;96.20;;;16.59;85.40;100303.81;5029109;28;20164;-83
2021/07/01 01:41:30;;;;;;;23.17;15.20;;;16.80;96.20;;;16.59;85.48;100298.31;5019856;28;20131;-83
2021/07/01 01:43:59;;;;;;;24.20;15.60;;;16.80;96.40;;;16.59;85.46;100292.81;5009365;28;20050;-83
2021/07/01 01:46:35;;;;;;;20.63;14.60;;;16.80;96.40;;;16.58;85.55;100302.16;5009167;28;20053;-83
2021/07/01 01:49:04;;;;;;;24.38;14.80;;;16.80;96.40;;;16.57;85.43;100296.88;5009448;28;20060;-83
2021/07/01 01:51:33;;;;;;;21.00;13.98;;;16.80;96.30;;;16.59;85.39;100295.56;5010804;28;20763;-83
2021/07/01 01:54:02;;;;;;;22.17;14.95;;;16.80;96.60;;;16.56;85.57;100304.28;5008992;28;20573;-83
2021/07/01 01:56:37;;;;;;;24.63;15.38;;;16.80;96.50;;;16.53;85.61;100299.25;5029795;28;20037;-83
2021/07/01 01:59:08;;;;;;;24.88;16.02;;;16.80;96.40;;;16.54;85.65;100300.06;5028542;28;20076;-83
2021/07/01 02:01:54;;;;;;;22.95;15.18;;;16.80;96.50;;;16.55;85.56;100296.25;5029879;28;20126;-83
2021/07/01 02:04:33;;;;;;;22.13;14.55;;;16.80;96.50;;;16.55;85.43;100297.09;5028475;28;20053;-83
2021/07/01 02:07:00;;;;;;;20.85;13.93;;;16.70;96.30;;;16.55;85.64;100301.75;5027870;28;20049;-83
2021/07/01 02:09:42;;;;;;;22.80;14.27;;;16.80;96.70;;;16.56;85.51;100287.81;5028210;28;20161;-83
2021/07/01 02:12:11;;;;;;;20.05;12.70;;;16.80;96.60;;;16.53;85.62;100287.41;5026858;28;20092;-83
2021/07/01 02:14:40;;;;;;;15.77;11.98;;;16.80;96.50;;;16.47;85.53;100293.81;5028147;28;20057;-83
2021/07/01 02:17:35;;;;;;;17.52;12.02;;;16.80;96.30;;;16.46;85.66;100292.16;5026766;28;20049;-83
2021/07/01 02:20:05;;;;;;;19.52;12.73;;;16.70;96.40;;;16.46;85.44;100287.47;5028211;28;20655;-83
2021/07/01 02:22:32;;;;;;;22.17;12.93;;;16.70;96.50;;;16.40;85.75;100289.22;5029216;28;20399;-83
2021/07/01 02:25:00;;;;;;;45.40;14.70;;;16.70;96.40;;;16.46;85.65;100297.63;5036940;28;20048;-83
2021/07/01 02:27:29;;;;;;;21.38;12.63;;;16.70;97.10;;;16.40;86.09;100296.66;5048887;28;20045;-83
2021/07/01 02:29:57;;;;;;;22.58;12.90;;;16.70;96.90;;;16.43;86.18;100293.44;5047546;28;20049;-83
2021/07/01 02:32:35;;;;;;;18.40;12.70;;;16.70;96.90;;;16.45;85.88;100296.81;5047718;28;20040;-83
2021/07/01 02:35:03;;;;;;;49.97;14.45;;;16.70;96.80;;;16.43;85.92;100293.44;5047450;28;20052;-83
2021/07/01 02:37:49;;;;;;;20.85;14.18;;;16.70;96.80;;;16.41;86.08;100299.16;5049095;28;20466;-82
2021/07/01 02:40:28;;;;;;;21.58;13.25;;;16.70;97.10;;;16.40;86.18;100300.22;5047232;28;20064;-83
2021/07/01 02:43:40;;;;;;;24.42;14.18;;;16.70;97.00;;;16.40;86.30;100304.88;5044622;28;20092;-83
2021/07/01 02:46:25;;;;;;;24.52;15.30;;;16.70;97.10;;;16.39;86.09;100294.94;5048636;28;20048;-83
2021/07/01 02:48:58;;;;;;;25.00;14.20;;;16.60;96.80;;;16.40;85.94;100302.97;5048918;28;20568;-83
2021/07/01 02:51:26;;;;;;;23.52;14.10;;;16.70;97.00;;;16.38;86.26;100302.34;5047180;28;20524;-83
2021/07/01 02:53:54;;;;;;;20.80;13.15;;;16.70;96.90;;;16.39;86.10;100295.81;5047360;28;20164;-83
2021/07/01 02:56:26;;;;;;;24.38;13.82;;;16.60;96.70;;;16.38;85.83;100313.34;5023441;28;20073;-83
2021/07/01 02:58:54;;;;;;;23.33;13.88;;;16.60;96.60;;;16.38;86.11;100318.00;5023988;28;20608;-83
2021/07/01 03:01:49;;;;;;;21.85;13.85;;;16.60;96.70;;;16.38;85.71;100316.09;5008591;28;20081;-83
2021/07/01 03:04:26;;;;;;;24.67;13.80;;;16.60;96.50;;;16.37;85.92;100314.44;5023747;28;20069;-83
2021/07/01 03:06:54;;;;;;;22.33;14.00;;;16.70;96.50;;;16.38;85.78;100307.84;5006890;28;20056;-83
2021/07/01 03:09:21;;;;;;;24.60;14.88;;;16.60;96.50;;;16.39;85.98;100305.94;5008885;28;20496;-83
2021/07/01 03:11:49;;;;;;;20.85;14.35;;;16.60;96.40;;;16.40;85.79;100294.72;5007229;28;20405;-83
2021/07/01 03:14:17;;;;;;;22.00;14.40;;;16.60;96.50;;;16.40;85.90;100300.22;5008618;28;20038;-83
2021/07/01 03:16:45;;;;;;;20.95;15.32;;;16.60;96.60;;;16.41;85.71;100304.66;5006897;28;20073;-83
2021/07/01 03:19:13;;;;;;;24.88;15.07;;;16.60;96.60;;;16.40;85.96;100299.38;5023136;28;20045;-83
2021/07/01 03:22:03;;;;;;;25.00;14.15;;;16.60;96.80;;;16.40;85.85;100299.38;5008619;28;20061;-83
2021/07/01 03:24:33;;;;;;;20.85;13.30;;;16.60;96.80;;;16.38;85.82;100312.50;5031842;28;20280;-83
2021/07/01 03:27:00;;;;;;;17.95;12.70;;;16.60;96.90;;;16.37;85.95;100305.31;5046612;28;20053;-83
2021/07/01 03:29:29;;;;;;;19.77;12.27;;;16.60;96.80;;;16.37;86.02;100308.06;5046991;28;20455;-83
2021/07/01 03:31:56;;;;;;;18.20;11.45;;;16.60;96.70;;;16.36;86.02;100299.00;5047032;28;20099;-83
2021/07/01 03:34:24;;;;;;;12.77;9.38;;;16.60;96.70;;;16.33;85.89;100299.44;5040826;28;20092;-83
2021/07/01 03:36:51;;;;;;;15.82;9.85;;;16.60;96.80;;;16.35;86.07;100311.03;5026530;28;20591;-83
2021/07/01 03:39:37;;;;;;;12.35;8.35;;;16.60;97.10;;;16.36;86.33;100309.16;5028531;28;20187;-83
2021/07/01 03:42:09;;;;;;;9.93;7.25;;;16.60;97.30;;;16.35;86.27;100324.78;5028367;28;20048;-83
2021/07/01 03:44:38;;;;;;;12.85;6.88;;;16.60;97.40;;;16.34;86.46;100316.78;5028546;28;20124;-83
2021/07/01 03:47:08;;;;;;;10.48;6.93;;;16.60;97.50;;;16.32;86.52;100314.25;5027673;28;20045;-83
2021/07/01 03:49:35;;;;;;;8.88;6.15;;;16.60;97.10;;;16.32;86.22;100317.00;5026897;28;20053;-83
2021/07/01 03:52:22;;;;;;;10.93;6.30;;;16.60;96.80;;;16.35;86.23;100326.69;5028035;28;20529;-83
2021/07/01 03:54:56;;;;;;;11.10;7.25;;;16.60;97.00;;;16.29;85.92;100322.94;5026827;28;20045;-84
2021/07/01 03:57:24;;;;;;;9.75;7.18;;;16.60;96.80;;;16.27;86.14;100322.34;5028158;28;20235;-83
2021/07/01 03:59:54;;;;;;;11.13;7.93;;;16.60;96.70;;;16.26;86.47;100315.19;5028432;28;20130;-83
2021/07/01 04:02:45;;;;;;;11.95;7.95;;;16.60;96.80;;;16.29;86.24;100316.63;5008562;28;20050;-83
2021/07/01 04:05:16;;;;;;;12.30;8.25;;;16.60;96.90;;;16.32;86.32;100313.44;5006938;28;20076;-82
2021/07/01 04:07:44;;;;;;;14.32;8.75;;;16.60;97.10;;;16.23;86.88;100315.63;5006772;28;20062;-82
2021/07/01 04:10:16;;;;;;;12.88;7.93;;;16.60;97.20;;;16.25;86.60;100318.97;5006839;28;20078;-83
2021/07/01 04:12:50;;;;;;;11.98;7.90;;;16.60;97.20;;;16.28;86.53;100324.03;5008452;28;20046;-83
2021/07/01 04:15:31;;;;;;;14.43;8.75;;;16.60;97.30;;;16.29;86.46;100324.88;5008365;28;20068;-83
2021/07/01 04:18:18;;;;;;;15.23;8.93;;;16.60;97.10;;;16.28;86.36;100325.91;5015206;28;20055;-83
2021/07/01 04:21:08;;;;;;;15.95;9.55;;;16.60;97.00;;;16.26;86.57;100326.16;5027745;28;20045;-83
2021/07/01 04:23:55;;;;;;;14.57;9.90;;;16.60;97.20;;;16.27;86.47;100321.50;5028432;28;20150;-83
2021/07/01 04:26:50;;;;;;;18.33;9.90;;;16.60;97.10;;;16.27;86.51;100319.59;5045949;28;20109;-83
2021/07/01 04:29:22;;;;;;;15.27;9.20;;;16.60;97.10;;;16.27;86.36;100316.00;5046062;28;20045;-83
2021/07/01 04:31:53;;;;;;;14.83;9.50;;;16.60;97.00;;;16.26;86.48;100323.41;5046082;28;20509;-82
2021/07/01 04:34:20;;;;;;;16.65;9.60;;;16.50;97.10;;;16.23;86.46;100321.13;5047883;28;20047;-85
2021/07/01 04:36:48;;;;;;;16.65;9.82;;;16.60;97.00;;;16.24;86.43;100320.06;5048689;28;20140;-79
2021/07/01 04:39:15;;;;;;;22.77;9.43;;;16.60;96.90;;;16.21;86.34;100324.06;5049781;28;20172;-83
2021/07/01 04:41:58;;;;;;;18.38;8.75;;;16.50;96.70;;;16.15;86.26;100324.16;5051008;28;20091;-81
2021/07/01 04:44:26;;;;;;;17.88;8.70;;;16.50;96.40;;;16.14;86.38;100327.97;5051201;28;20060;-82
2021/07/01 04:46:56;;;;;;;15.50;8.60;;;16.60;96.30;;;16.17;86.30;100322.03;5049240;28;20052;-82
2021/07/01 04:49:24;;;;;;;16.10;8.93;;;16.60;96.50;;;16.19;86.24;100317.16;5049142;28;20753;-82
2021/07/01 04:52:13;;;;;;;19.35;9.35;;;16.60;96.30;;;16.19;85.98;100322.63;5050892;28;20037;-83
2021/07/01 04:55:06;;;;;;;16.65;9.02;;;16.60;96.30;;;16.13;85.42;100331.78;5041591;28;20041;-82
2021/07/01 04:57:51;;;;;;;25.98;10.90;;;16.60;96.00;;;16.15;85.91;100335.16;5030957;28;20059;-83
2021/07/01 05:00:19;;;;;;;24.73;10.18;;;16.50;96.10;;;16.11;86.16;100323.78;5030862;28;20099;-83
2021/07/01 05:03:06;;;;;;;20.13;10.50;;;16.50;96.10;;;16.15;85.94;100326.91;5031002;28;20182;-82
2021/07/01 05:05:37;;;;;;;20.55;10.57;;;16.50;95.90;;;16.16;85.84;100325.81;5029404;28;20107;-83
2021/07/01 05:08:06;;;;;;;24.42;10.65;;;16.50;96.20;;;16.13;85.90;100332.63;5029254;28;20095;-83
2021/07/01 05:10:34;;;;;;;22.42;10.55;;;16.50;95.90;;;16.14;85.91;100325.22;5029138;28;20053;-82
2021/07/01 05:13:06;;;;;;;24.48;10.95;;;16.50;96.10;;;16.15;86.05;100327.75;5024969;28;20045;-82
2021/07/01 05:15:34;;;;;;;21.00;11.23;;;16.50;96.40;;;16.14;86.02;100334.28;5025610;28;20054;-82
2021/07/01 05:18:06;;;;;;;;;;;16.50;96.50;;;16.15;86.16;100330.47;5041611;28;20130;-82
2021/07/01 05:20:35;;;;;;;22.17;11.07;;;16.50;96.60;;;16.17;85.86;100330.25;5028982;28;19925;-82
2021/07/01 05:23:21;;;;;;;19.90;11.00;;;16.50;96.30;;;16.13;86.20;100331.78;5030325;28;20079;-81
2021/07/01 05:26:08;;;;;;;23.02;11.20;;;16.50;96.30;;;16.14;86.12;100325.22;5048013;28;20504;-82
2021/07/01 05:28:54;;;;;;;20.10;11.65;;;16.50;96.40;;;16.15;86.14;100329.66;5050340;28;20060;-83
2021/07/01 05:31:40;;;;;;;23.83;12.20;;;16.50;96.40;;;16.15;86.17;100321.41;5050548;28;20051;-82
2021/07/01 05:34:27;;;;;;;21.17;11.23;;;16.50;96.30;;;16.17;86.22;100320.13;5050329;28;20529;-84
2021/07/01 05:36:55;;;;;;;24.83;11.43;;;16.50;96.60;;;16.18;86.24;100323.69;5034914;28;20107;-78
2021/07/01 05:39:26;;;;;;;21.63;12.10;;;16.50;96.70;;;16.18;86.44;100323.69;5028688;28;20053;-79
2021/07/01 05:42:04;;;;;;;23.85;12.43;;;16.60;96.70;;;16.18;86.38;100331.94;5045061;28;20128;-80
2021/07/01 05:44:32;;;;;;;24.85;12.70;;;16.60;96.50;;;16.20;86.29;100322.41;5048507;28;20131;-80
2021/07/01 05:46:59;;;;;;;23.50;12.15;;;16.60;96.50;;;16.20;86.24;100327.91;5048055;28;20158;-80
2021/07/01 05:49:28;;;;;;;25.35;12.50;;;16.50;96.60;;;16.22;86.39;100330.41;5050036;28;20041;-78
2021/07/01 05:51:58;;;;;;;22.63;12.57;;;16.50;96.70;;;16.23;86.18;100332.09;5049634;28;20114;-79
2021/07/01 05:54:28;;;;;;;24.88;12.95;;;16.50;96.60;;;16.21;86.38;100326.00;5046414;28;20037;-80
2021/07/01 05:56:55;;;;;;;26.30;12.83;;;16.50;96.80;;;16.22;86.23;100330.41;5029439;28;20053;-80
2021/07/01 05:59:23;;;;;;;25.83;12.63;;;16.50;96.70;;;16.16;86.30;100321.19;5028381;28;20497;-80
2021/07/01 06:01:50;;;;;;;26.17;12.10;;;16.60;96.60;;;16.15;86.27;100326.91;5029549;28;20041;-79
2021/07/01 06:04:18;;;;;;;22.20;12.27;;;16.60;96.20;;;16.16;86.24;100339.56;5029713;28;20053;-80
2021/07/01 06:07:10;;;;;;;26.77;12.90;;;16.60;96.00;;;16.16;85.88;100332.19;5009649;28;20045;-80
2021/07/01 06:09:42;;;;;;;25.60;12.15;;;16.50;96.20;;;16.19;85.94;100330.88;5028363;28;20465;-79
2021/07/01 06:12:10;;;;;;;20.67;11.52;;;16.50;96.30;;;16.18;85.69;100331.94;5029601;28;20748;-80
2021/07/01 06:14:37;;;;;;;23.98;12.70;;;16.50;96.50;;;16.10;85.91;100326.72;5029656;28;20080;-80
2021/07/01 06:17:05;;;;;;;24.73;12.38;;;16.50;96.20;;;16.12;86.33;100335.59;5029197;28;20049;-80
2021/07/01 06:19:34;;;;;;;20.90;11.95;;;16.50;96.40;;;16.12;86.05;100338.34;5029342;28;20106;-80
2021/07/01 06:22:01;;;;;;;23.00;12.65;;;16.50;96.30;;;16.12;86.05;100341.91;5028842;28;20048;-80
2021/07/01 06:24:32;;;;;;;22.90;13.48;;;16.60;96.10;;;16.16;85.83;100343.16;5034111;28;20126;-80
2021/07/01 06:27:02;;;;;;;24.55;13.40;;;16.50;96.00;;;16.10;85.84;100346.78;5049149;28;20417;-80
2021/07/01 06:29:30;;;;;;;21.45;12.55;;;16.50;95.90;;;16.12;85.83;100341.06;5049116;28;20493;-80
2021/07/01 06:31:57;;;;;;;27.00;12.43;;;16.50;96.10;;;16.11;85.81;100344.91;5049015;28;20076;-80
2021/07/01 06:34:24;;;;;;;20.45;11.60;;;16.50;95.90;;;16.12;85.77;100346.56;5043405;28;20525;-80
2021/07/01 06:37:00;;;;;;;15.80;10.35;;;16.50;96.00;;;16.15;85.83;100348.88;5028918;28;20049;-79
2021/07/01 06:39:51;;;;;;;25.08;9.93;;;16.50;96.00;;;16.14;85.72;100349.91;5029395;28;20068;-79
2021/07/01 06:42:45;;;;;;;17.83;9.43;;;16.50;96.10;;;16.12;85.89;100355.63;5029025;28;20187;-80
2021/07/01 06:45:34;;;;;;;19.70;9.70;;;16.50;96.10;;;16.16;86.24;100356.88;5029267;28;20071;-80
2021/07/01 06:48:38;;;;;;;19.58;9.88;;;16.50;96.40;;;16.16;85.90;100356.03;4987028;28;20423;-79
2021/07/01 06:51:24;;;;;;;25.65;10.90;;;16.60;95.90;;;16.14;86.00;100352.66;5026269;28;20135;-79
2021/07/01 06:54:14;;;;;;;21.15;9.13;;;16.50;95.70;;;16.15;85.82;100357.09;5029054;28;20055;-79
2021/07/01 06:57:02;;;;;;;14.48;8.30;;;16.60;95.50;;;16.11;85.71;100350.41;5028635;28;20146;-80
2021/07/01 06:59:29;;;;;;;20.15;8.52;;;16.60;95.40;;;16.08;85.91;100354.41;5028321;28;20049;-80
2021/07/01 07:01:57;;;;;;;16.52;8.20;;;16.60;95.30;;;16.10;85.80;100365.16;5027131;28;20081;-80
2021/07/01 07:04:25;;;;;;;15.93;8.45;;;16.60;95.30;;;16.14;85.86;100371.88;5028563;28;20673;-80
2021/07/01 07:06:52;;;;;;;13.82;8.13;;;16.60;95.30;;;16.16;85.97;100365.13;5028310;28;20142;-80
2021/07/01 07:09:20;;;;;;;13.98;8.63;;;16.60;95.60;;;16.17;86.02;100360.47;5028446;28;20050;-80
2021/07/01 07:11:48;;;;;;;19.02;8.90;;;16.60;95.40;;;16.12;85.77;100368.53;5028623;28;20148;-81
2021/07/01 07:14:17;;;;;;;21.58;9.40;;;16.70;95.10;;;16.15;85.81;100359.84;5025739;28;20038;-79
2021/07/01 07:16:49;;;;;;;19.35;9.60;;;16.60;95.20;;;16.16;85.77;100364.25;5008540;28;20124;-79
2021/07/01 07:19:21;;;;;;;19.30;9.35;;;16.60;95.30;;;16.17;85.95;100363.22;5008742;28;20138;-79
2021/07/01 07:21:51;;;;;;;18.05;10.55;;;16.60;95.60;;;16.15;85.49;100363.44;5010967;28;20143;-79
2021/07/01 07:24:20;;;;;;;19.15;11.60;;;16.60;95.40;;;16.12;85.47;100368.53;5030133;28;20056;-79
2021/07/01 07:26:53;;;;;;;20.00;11.00;;;16.60;95.30;;;16.15;85.90;100362.59;5047966;28;20045;-79
2021/07/01 07:29:23;;;;;;;20.45;10.48;;;16.60;95.70;;;16.16;85.88;100365.13;5011094;28;20045;-81
2021/07/01 07:31:53;;;;;;;17.13;10.70;;;16.60;95.90;;;16.15;86.20;100374.41;5008467;28;20123;-78
2021/07/01 07:34:20;;;;;;;23.83;10.75;;;16.60;96.00;;;16.17;86.47;100366.78;5008591;28;20564;-78
2021/07/01 07:36:48;;;;;;;19.48;10.93;;;16.60;96.20;;;16.18;86.29;100363.00;5008261;28;20054;-78
2021/07/01 07:39:15;;;;;;;20.35;10.73;;;16.60;96.10;;;16.18;86.43;100370.38;5008544;28;20084;-78
2021/07/01 07:41:43;;;;;;;17.83;11.55;;;16.60;96.20;;;16.18;86.49;100367.63;5008464;28;20054;-79
2021/07/01 07:44:10;;;;;;;20.75;12.32;;;16.60;96.10;;;16.18;86.38;100378.59;5008378;28;20150;-79
2021/07/01 07:46:39;;;;;;;21.85;11.98;;;16.60;96.00;;;16.18;86.18;100378.59;5008189;28;20049;-78
2021/07/01 07:49:07;;;;;;;19.75;12.32;;;16.60;95.90;;;16.19;86.15;100369.31;5008389;28;20387;-78
2021/07/01 07:51:34;;;;;;;19.52;12.32;;;16.60;95.90;;;16.19;86.08;100380.31;5023497;28;20634;-78
2021/07/01 07:54:06;;;;;;;26.42;13.30;;;16.60;96.10;;;16.18;86.18;100381.34;5017075;28;20041;-77
2021/07/01 07:56:37;;;;;;;26.95;14.27;;;16.60;96.30;;;16.18;86.33;100378.59;5027807;28;20107;-78
2021/07/01 07:59:06;;;;;;;;;;;16.60;96.20;;;16.19;86.07;100385.78;5028166;28;20146;-78
2021/07/01 08:01:35;;;;;;;24.83;13.45;;;16.60;95.90;;;16.20;86.25;100381.97;5027959;28;19925;-77
2021/07/01 08:04:06;;;;;;;28.52;14.10;;;16.60;96.20;;;16.21;86.22;100376.25;5027792;28;20041;-77
2021/07/01 08:06:34;;;;;;;;;;;16.60;96.20;;;16.18;86.31;100382.22;5028252;28;20548;-77
2021/07/01 08:09:05;;;;;;;25.15;14.23;;;16.60;96.20;;;16.19;86.63;100380.31;5026645;28;19927;-78
2021/07/01 08:11:35;;;;;;;28.67;14.05;;;16.60;96.40;;;16.18;86.67;100381.34;5030425;28;20441;-79
2021/07/01 08:14:04;;;;;;;29.02;15.05;;;16.60;96.50;;;16.18;86.51;100386.84;5031947;28;20500;-77
2021/07/01 08:16:32;;;;;;;26.63;15.00;;;16.60;96.40;;;16.17;86.54;100376.94;5017762;28;20116;-78
2021/07/01 08:19:00;;;;;;;24.10;13.65;;;16.60;96.20;;;16.18;86.37;100378.59;5030115;28;20448;-78
2021/07/01 08:21:29;;;;;;;24.48;13.20;;;16.60;96.00;;;16.17;86.51;100382.44;5031492;28;20042;-78
2021/07/01 08:23:59;;;;;;;27.73;15.02;;;16.60;96.00;;;16.14;86.61;100377.38;5031934;28;20048;-79
2021/07/01 08:26:26;;;;;;;24.65;12.65;;;16.60;96.00;;;16.16;86.76;100387.09;5051095;28;20523;-79
2021/07/01 08:28:58;;;;;;;22.33;11.90;;;16.70;96.20;;;16.09;86.71;100388.19;5051655;28;20182;-79
2021/07/01 08:31:25;;;;;;;24.85;12.30;;;16.70;95.80;;;16.13;86.92;100392.19;5033070;28;20057;-79
2021/07/01 08:33:53;;;;;;;27.40;13.60;;;16.70;95.90;;;16.09;86.84;100391.78;5011585;28;20046;-78
2021/07/01 08:36:24;;;;;;;27.30;13.40;;;16.70;95.70;;;16.10;86.72;100390.72;5009887;28;20056;-79
2021/07/01 08:38:55;;;;;;;20.45;11.82;;;16.70;95.90;;;16.12;86.81;100393.25;5014636;28;20076;-79
2021/07/01 08:41:25;;;;;;;24.50;13.82;;;16.60;95.80;;;16.11;86.78;100391.56;5019662;28;20452;-78
2021/07/01 08:43:54;;;;;;;23.02;12.70;;;16.60;96.10;;;16.12;86.61;100391.31;5011473;28;20072;-78
2021/07/01 08:46:28;;;;;;;21.98;12.70;;;16.60;95.90;;;16.13;86.52;100404.00;5030508;28;20068;-78
2021/07/01 08:49:08;;;;;;;25.55;13.50;;;16.60;95.80;;;16.13;86.75;100397.69;5031242;28;20756;-78
2021/07/01 08:51:37;;;;;;;24.80;13.35;;;16.60;96.20;;;16.08;86.73;100405.75;5031280;28;20049;-78
2021/07/01 08:54:26;;;;;;;29.98;12.82;;;16.60;95.90;;;16.10;87.01;100401.69;5031165;28;20034;-78
2021/07/01 08:56:55;;;;;;;24.55;13.52;;;16.60;96.00;;;16.08;87.11;100405.75;5030823;28;20053;-78
2021/07/01 08:59:25;;;;;;;23.35;13.20;;;16.60;95.90;;;16.10;86.77;100411.84;5026433;28;20493;-79
2021/07/01 09:01:59;;;;;;;22.95;12.82;;;16.60;95.90;;;16.11;86.76;100408.88;5045153;28;20050;-78
2021/07/01 09:04:29;;;;;;;24.83;13.40;;;16.60;96.00;;;16.11;86.83;100416.28;5019956;28;20141;-79
2021/07/01 09:07:01;;;;;;;29.42;13.73;;;16.60;96.00;;;16.11;86.98;100411.63;5016357;28;20057;-79
2021/07/01 09:09:38;;;;;;;22.52;13.90;;;16.60;96.00;;;16.14;86.96;100413.06;5011165;28;20038;-80
2021/07/01 09:12:07;;;;;;;27.17;14.05;;;16.60;96.10;;;16.14;86.77;100413.91;5017886;28;20041;-80
2021/07/01 09:14:36;;;;;;;21.95;13.75;;;16.60;95.90;;;16.10;87.01;100412.69;5029433;28;20042;-80
2021/07/01 09:17:10;;;;;;;22.83;12.60;;;16.60;95.90;;;16.12;87.06;100412.47;5029851;28;20048;-78
2021/07/01 09:19:38;;;;;;;23.88;13.38;;;16.60;96.30;;;16.14;87.05;100413.06;5030932;28;20045;-78
2021/07/01 09:22:10;;;;;;;23.75;13.00;;;16.60;96.40;;;16.17;86.88;100415.38;5026922;28;20096;-79
2021/07/01 09:24:40;;;;;;;22.98;12.63;;;16.60;96.30;;;16.14;86.80;100410.31;5032503;28;20045;-78
2021/07/01 09:27:12;;;;;;;28.95;13.07;;;16.70;96.30;;;16.07;86.85;100420.50;5050259;28;20049;-78
2021/07/01 09:29:43;;;;;;;22.63;13.18;;;16.70;96.00;;;16.09;86.99;100413.75;5050337;28;20045;-78
2021/07/01 09:32:12;;;;;;;22.35;11.98;;;16.60;95.90;;;16.07;86.58;100415.03;5030457;28;20087;-79
2021/07/01 09:34:42;;;;;;;23.13;13.18;;;16.60;95.80;;;16.09;86.96;100413.75;5030201;28;20069;-79
2021/07/01 09:37:10;;;;;;;23.30;13.25;;;16.60;95.80;;;16.13;87.06;100416.91;5027782;28;20049;-82
2021/07/01 09:39:40;;;;;;;17.05;11.73;;;16.70;96.30;;;16.13;87.05;100419.66;5036198;28;20620;-80
2021/07/01 09:42:09;;;;;;;22.65;13.10;;;16.70;96.10;;;16.15;86.99;100420.25;5018431;28;20042;-78
2021/07/01 09:44:40;;;;;;;26.75;13.23;;;16.70;96.40;;;16.16;87.02;100419.19;5010202;28;20521;-78
2021/07/01 09:47:10;;;;;;;20.40;12.18;;;16.70;96.30;;;16.16;87.07;100413.69;5027403;28;20058;-78
2021/07/01 09:49:40;;;;;;;23.15;13.00;;;16.70;96.20;;;16.18;87.10;100423.41;5017278;28;20129;-77
2021/07/01 09:52:09;;;;;;;24.40;13.52;;;16.70;96.20;;;16.19;87.33;100418.75;5019080;28;20116;-78
2021/07/01 09:54:40;;;;;;;27.50;13.23;;;16.70;96.40;;;16.19;87.35;100418.75;5014005;28;20037;-77
2021/07/01 09:57:10;;;;;;;;;;;16.80;96.30;;;16.19;87.48;100419.56;5011041;28;20042;-77
2021/07/01 09:59:47;;;;;;;25.13;11.82;;;16.80;96.10;;;16.20;87.64;100417.66;5010227;28;19933;-77
2021/07/01 10:02:18;;;;;;;22.35;12.32;;;16.80;96.20;;;16.20;87.54;100423.16;5015879;28;20163;-78
2021/07/01 10:04:47;;;;;;;23.43;12.20;;;16.90;96.10;;;16.16;87.30;100422.78;5029787;28;20505;-79
2021/07/01 10:07:17;;;;;;;23.70;12.25;;;16.90;96.00;;;16.15;87.96;100428.50;5016438;28;20292;-77
2021/07/01 10:09:53;;;;;;;22.55;11.65;;;16.90;95.90;;;16.15;88.21;100428.50;5020329;28;20076;-78
2021/07/01 10:12:22;;;;;;;26.50;12.13;;;16.90;96.20;;;16.09;88.15;100429.38;5027769;28;20398;-78
2021/07/01 10:14:52;;;;;;;20.33;11.57;;;17.00;95.70;;;16.15;88.29;100426.59;5023022;28;20885;-78
2021/07/01 10:17:21;;;;;;;18.85;11.23;;;16.90;95.80;;;16.18;88.14;100425.28;5015841;28;20406;-79
2021/07/01 10:19:50;;;;;;;22.27;11.30;;;16.90;96.00;;;16.25;88.45;100428.00;5017698;28;20044;-80
2021/07/01 10:22:20;;;;;;;20.02;11.00;;;16.90;96.30;;;16.23;88.21;100429.03;5016031;28;20111;-79
2021/07/01 10:24:58;;;;;;;23.75;10.73;;;17.00;95.80;;;16.17;88.20;100432.69;5022344;28;20044;-79